Currently 46°F in Murrieta, California, USA
46°F
48°F / 46°F
calm
0.00"
Tuesday, December 10, 2019 12:52 AM PST

Murrieta, California Weather Summary
Last 36 Hours

Temperature Winds Hourly Humidity Dewpoint
Time Report Norm Report Norm Max Gusts Precip. Rpt. Norm Rpt. Norm Pressure
1,3Tue 12:52 AM  46.1°F  47°F  calm  1 mph  none  0.00"  96%  79%  45°F  41°F  30.19"
2Tue 12:02 AM  47.5°F  48°F  calm  1 mph  2 mph  ----  96%  77%  46°F  41°F  30.19"
Tue 12:00 AM  47.4°F  48°F  calm  1 mph  4 mph  0.00"  96%  77%  46°F  41°F  30.19"
Mon 11:00 PM  48.6°F  49°F  calm  1 mph  5 mph  0.00"  96%  76%  47°F  42°F  30.19"
Mon 10:00 PM  50.1°F  50°F  3 mph W  1 mph  7 mph  0.00"  96%  74%  49°F  42°F  30.17"
Mon 09:00 PM  50.7°F  51°F  calm  1 mph  3 mph  0.00"  95%  72%  49°F  42°F  30.16"
Mon 08:00 PM  52.0°F  52°F  calm  2 mph  none  0.00"  94%  70%  50°F  43°F  30.15"
Mon 07:00 PM  54.0°F  54°F  calm  2 mph  10 mph  0.00"  92%  68%  52°F  43°F  30.12"
Mon 06:00 PM  54.5°F  56°F  7 mph SW  3 mph  11 mph  0.00"  92%  64%  52°F  44°F  30.11"
Mon 05:00 PM  57.8°F  59°F  4 mph SW  3 mph  14 mph  0.00"  86%  60%  53°F  45°F  30.09"
Mon 04:00 PM  59.6°F  62°F  6 mph SW  4 mph  13 mph  0.00"  82%  54%  54°F  44°F  30.08"
Mon 03:00 PM  63.0°F  66°F  calm  4 mph  12 mph  0.00"  75%  47%  55°F  44°F  30.06"
Mon 02:00 PM  64.2°F  67°F  5 mph SW  4 mph  11 mph  0.00"  71%  45%  54°F  44°F  30.07"
Mon 01:00 PM  64.2°F  67°F  4 mph S  3 mph  8 mph  0.00"  69%  46%  54°F  44°F  30.07"
Mon 12:00 PM  64.2°F  65°F  2 mph SE  3 mph  7 mph  0.00"  65%  48%  52°F  44°F  30.08"
Mon 11:00 AM  58.8°F  62°F  4 mph S  3 mph  7 mph  0.00"  88%  54%  55°F  45°F  30.11"
Mon 10:00 AM  51.9°F  58°F  3 mph SW  2 mph  4 mph  0.00"  98%  64%  51°F  45°F  30.12"
Mon 09:00 AM  49.1°F  52°F  calm  1 mph  4 mph  0.00"  97%  74%  48°F  44°F  30.11"
Mon 08:00 AM  48.2°F  47°F  calm  1 mph  2 mph  0.00"  97%  81%  47°F  41°F  30.10"
Mon 07:00 AM  46.0°F  44°F  calm  1 mph  5 mph  0.01"  97%  83%  45°F  39°F  30.08"
Mon 06:00 AM  47.3°F  44°F  calm  1 mph  3 mph  0.00"  97%  83%  46°F  39°F  30.06"
Mon 05:00 AM  46.6°F  45°F  1 mph SW  1 mph  1 mph  0.00"  97%  82%  46°F  39°F  30.05"
Mon 04:00 AM  47.5°F  46°F  calm  1 mph  6 mph  0.00"  97%  81%  47°F  40°F  30.05"
Mon 03:00 AM  49.7°F  46°F  calm  1 mph  5 mph  0.00"  96%  79%  49°F  40°F  30.04"
Mon 02:00 AM  48.3°F  47°F  3 mph E  1 mph  4 mph  0.00"  96%  79%  47°F  40°F  30.05"
Mon 01:00 AM  48.1°F  47°F  calm  1 mph  4 mph  0.00"  96%  78%  47°F  41°F  30.05"
Mon 12:00 AM  48.8°F  48°F  calm  1 mph  3 mph  0.00"  95%  77%  47°F  41°F  30.05"
Sun 11:00 PM  50.6°F  49°F  calm  1 mph  6 mph  0.00"  93%  75%  48°F  41°F  30.05"
Sun 10:00 PM  52.7°F  50°F  1 mph NW  1 mph  10 mph  0.00"  89%  74%  49°F  42°F  30.04"
Sun 09:00 PM  53.3°F  51°F  4 mph W  2 mph  10 mph  0.00"  90%  72%  50°F  42°F  30.03"
Sun 08:00 PM  53.9°F  53°F  calm  2 mph  8 mph  0.00"  93%  69%  52°F  43°F  30.03"
Sun 07:00 PM  55.8°F  54°F  3 mph SW  2 mph  9 mph  0.00"  95%  67%  54°F  43°F  30.03"
Sun 06:00 PM  56.2°F  56°F  6 mph SW  3 mph  7 mph  0.00"  94%  64%  54°F  44°F  30.03"
Sun 05:00 PM  57.7°F  59°F  calm  3 mph  12 mph  0.00"  89%  60%  55°F  44°F  30.03"
Sun 04:00 PM  59.0°F  62°F  5 mph SW  4 mph  13 mph  0.00"  88%  53%  55°F  44°F  30.03"
Sun 03:00 PM  61.2°F  66°F  calm  4 mph  14 mph  0.00"  80%  46%  55°F  44°F  30.02"
Sun 02:00 PM  63.9°F  67°F  2 mph W  4 mph  15 mph  0.00"  73%  44%  55°F  44°F  30.02"
Sun 01:00 PM  65.0°F  67°F  calm  3 mph  12 mph  0.00"  73%  45%  56°F  44°F  30.03"
Sun 12:00 PM  65.1°F  65°F  4 mph SW  3 mph  10 mph  0.00"  72%  48%  55°F  44°F  30.05"

  1. Current weather data. No green row appears if the current weather data is also the high or low for the current day.
  2. High temperature for the current day.
  3. Low temperature for the current day.

The Murrieta weather pages are a service of WeatherCurrents. Murrieta, California is located in the Temecula Valley, in southwestern Riverside County, at the junctions of the Interstate 15 and 215 highways.
Copyright ©2019  WeatherCurrents. All rights reserved. - Submit questions and comments - Privacy Policy

This page automatically refreshes every 10 minutes.